Time;durP1;ratioP1;P1;durP2;ratioP2;P2;SDS_P1;SDS_P2;PMS_P1;PMS_P2;Temp;Humidity;BMP_temperature;BMP_pressure;BME280_temperature;BME280_humidity;BME280_pressure;Samples;Min_cycle;Max_cycle;Signal;HPM_P1;HPM_P2
2020/12/23 00:01:27;;;;;;;3.03;2.40;;;13.90;99.90;;;;;;5057279;28;20296;-76
2020/12/23 00:03:55;;;;;;;3.13;2.37;;;13.90;99.90;;;;;;5054369;28;20307;-76
2020/12/23 00:06:22;;;;;;;2.90;2.20;;;13.90;99.90;;;;;;5054796;28;20242;-76
2020/12/23 00:08:48;;;;;;;3.00;2.50;;;13.90;99.90;;;;;;5060765;28;20279;-76
2020/12/23 00:11:15;;;;;;;2.77;2.50;;;13.90;99.90;;;;;;5074806;28;20202;-76
2020/12/23 00:13:42;;;;;;;2.43;2.23;;;13.90;99.90;;;;;;5074188;28;20903;-76
2020/12/23 00:16:09;;;;;;;2.40;2.20;;;13.90;99.90;;;;;;5074680;28;20226;-76
2020/12/23 00:18:35;;;;;;;3.97;2.30;;;13.90;99.90;;;;;;5073760;28;20286;-76
2020/12/23 00:21:02;;;;;;;2.30;2.10;;;13.90;99.90;;;;;;5074502;28;20282;-76
2020/12/23 00:23:28;;;;;;;2.77;2.07;;;13.80;99.90;;;;;;5056908;28;20653;-77
2020/12/23 00:25:55;;;;;;;2.93;2.20;;;13.90;99.90;;;;;;5073659;28;20219;-76
2020/12/23 00:28:21;;;;;;;4.30;2.50;;;13.90;99.90;;;;;;5074419;28;20266;-76
2020/12/23 00:30:47;;;;;;;2.80;2.50;;;13.90;99.90;;;;;;5073590;28;20233;-76
2020/12/23 00:33:15;;;;;;;2.27;2.00;;;13.80;99.90;;;;;;5074042;28;20234;-76
2020/12/23 00:35:41;;;;;;;2.57;2.20;;;13.90;99.90;;;;;;5074644;28;20234;-77
2020/12/23 00:38:07;;;;;;;2.90;1.93;;;13.90;99.90;;;;;;5079919;28;20245;-77
2020/12/23 00:40:34;;;;;;;2.90;2.30;;;13.90;99.90;;;;;;5082402;28;20230;-76
2020/12/23 00:43:00;;;;;;;3.87;2.23;;;13.90;99.90;;;;;;5073930;28;20766;-76
2020/12/23 00:45:26;;;;;;;6.20;2.40;;;13.90;99.90;;;;;;5058824;28;20286;-76
2020/12/23 00:47:53;;;;;;;3.40;2.63;;;13.90;99.90;;;;;;5053803;28;20231;-77
2020/12/23 00:50:20;;;;;;;4.43;2.87;;;13.90;99.90;;;;;;5059930;28;20231;-76
2020/12/23 00:52:46;;;;;;;3.73;2.97;;;13.90;99.90;;;;;;5072936;28;20307;-76
2020/12/23 00:55:13;;;;;;;4.53;3.13;;;13.90;99.90;;;;;;5073948;28;20235;-76
2020/12/23 00:57:40;;;;;;;4.60;3.37;;;13.90;99.90;;;;;;5074171;28;20205;-76
2020/12/23 01:00:07;;;;;;;7.23;3.30;;;13.90;99.90;;;;;;5073179;28;20282;-77
2020/12/23 01:02:33;;;;;;;4.97;3.17;;;13.90;99.90;;;;;;5073515;28;20282;-76
2020/12/23 01:05:00;;;;;;;4.83;3.70;;;13.90;99.90;;;;;;5061766;28;20239;-76
2020/12/23 01:07:27;;;;;;;6.00;3.40;;;13.90;99.90;;;;;;5071719;28;20227;-76
2020/12/23 01:09:53;;;;;;;6.97;3.57;;;13.90;99.90;;;;;;5062608;28;20282;-77
2020/12/23 01:12:20;;;;;;;5.27;3.80;;;13.90;99.90;;;;;;5068045;28;20282;-77
2020/12/23 01:14:46;;;;;;;5.07;3.60;;;13.90;99.90;;;;;;5063552;28;20224;-76
2020/12/23 01:17:14;;;;;;;6.10;3.50;;;13.80;99.90;;;;;;5053471;28;20286;-77
2020/12/23 01:19:41;;;;;;;6.57;3.40;;;13.80;99.90;;;;;;5053969;28;20203;-76
2020/12/23 01:22:07;;;;;;;5.83;3.50;;;13.80;99.90;;;;;;5053436;28;20779;-76
2020/12/23 01:24:34;;;;;;;7.00;3.63;;;13.80;99.90;;;;;;5053717;28;20239;-76
2020/12/23 01:27:01;;;;;;;6.20;3.40;;;13.80;99.90;;;;;;5071517;28;20246;-76
2020/12/23 01:29:27;;;;;;;4.93;3.23;;;13.90;99.90;;;;;;5069908;28;20638;-77
2020/12/23 01:31:54;;;;;;;6.67;3.60;;;13.90;99.90;;;;;;5072394;28;20286;-77
2020/12/23 01:34:20;;;;;;;7.37;3.33;;;13.90;99.90;;;;;;5071866;28;20278;-76
2020/12/23 01:36:50;;;;;;;6.77;3.70;;;13.90;99.90;;;;;;5073498;28;20233;-77
2020/12/23 01:39:17;;;;;;;10.23;4.07;;;13.90;99.90;;;;;;5088607;28;20645;-77
2020/12/23 01:41:44;;;;;;;7.63;4.13;;;13.90;99.90;;;;;;5093805;28;20265;-77
2020/12/23 01:44:11;;;;;;;8.53;3.77;;;13.80;99.90;;;;;;5087433;28;20282;-77
2020/12/23 01:46:38;;;;;;;6.63;4.20;;;13.90;99.90;;;;;;5072538;28;20674;-77
2020/12/23 01:49:07;;;;;;;9.07;4.33;;;13.90;99.90;;;;;;5055798;28;20231;-77
2020/12/23 01:51:35;;;;;;;9.10;4.67;;;13.90;99.90;;;;;;5052792;28;20238;-77
2020/12/23 01:54:01;;;;;;;8.67;4.93;;;13.90;99.90;;;;;;5053042;28;20207;-77
2020/12/23 01:56:30;;;;;;;8.30;4.60;;;13.80;99.90;;;;;;5052732;28;20751;-77
2020/12/23 01:58:57;;;;;;;9.10;4.50;;;13.80;99.90;;;;;;5068686;28;20243;-77
2020/12/23 02:01:28;;;;;;;9.30;4.47;;;13.80;99.90;;;;;;5070901;28;20286;-77
2020/12/23 02:03:55;;;;;;;11.03;5.07;;;13.80;99.90;;;;;;5052833;28;20290;-76
2020/12/23 02:06:22;;;;;;;10.43;4.90;;;13.80;99.90;;;;;;5051743;28;20239;-77
2020/12/23 02:08:51;;;;;;;10.10;4.93;;;13.80;99.90;;;;;;5052582;28;20231;-77
2020/12/23 02:11:18;;;;;;;12.10;5.10;;;13.80;99.90;;;;;;5052786;28;20232;-77
2020/12/23 02:13:45;;;;;;;10.50;4.83;;;13.80;99.90;;;;;;5053777;28;20249;-77
2020/12/23 02:16:13;;;;;;;11.47;5.27;;;13.80;99.90;;;;;;5072283;28;20237;-77
2020/12/23 02:18:40;;;;;;;9.17;4.77;;;13.80;99.90;;;;;;5071706;28;20238;-76
2020/12/23 02:21:06;;;;;;;12.60;5.27;;;13.70;99.90;;;;;;5058570;28;20234;-76
2020/12/23 02:23:33;;;;;;;13.97;5.27;;;13.70;99.90;;;;;;5054111;28;20262;-76
2020/12/23 02:26:00;;;;;;;8.77;5.00;;;13.70;99.90;;;;;;5072357;28;20226;-76
2020/12/23 02:28:26;;;;;;;11.73;5.27;;;13.70;99.90;;;;;;5072058;28;20274;-76
2020/12/23 02:30:59;;;;;;;12.47;5.23;;;13.70;99.90;;;;;;5071649;28;20317;-76
2020/12/23 02:33:25;;;;;;;13.83;5.53;;;13.70;99.90;;;;;;5072266;28;20239;-76
2020/12/23 02:35:52;;;;;;;10.97;5.43;;;13.60;99.90;;;;;;5057572;28;20735;-76
2020/12/23 02:38:18;;;;;;;10.93;5.90;;;13.60;99.90;;;;;;5059792;28;20342;-76
2020/12/23 02:40:45;;;;;;;12.33;5.73;;;13.60;99.90;;;;;;5072103;28;20641;-76
2020/12/23 02:43:12;;;;;;;10.83;5.97;;;13.60;99.90;;;;;;5071384;28;20908;-76
2020/12/23 02:45:38;;;;;;;9.90;6.17;;;13.50;99.90;;;;;;5072232;28;20239;-76
2020/12/23 02:48:05;;;;;;;14.33;5.70;;;13.50;99.90;;;;;;5072226;28;20281;-76
2020/12/23 02:50:31;;;;;;;12.10;5.37;;;13.50;99.90;;;;;;5071041;28;20225;-76
2020/12/23 02:52:57;;;;;;;12.33;5.87;;;13.50;99.90;;;;;;5071986;28;20353;-76
2020/12/23 02:55:24;;;;;;;7.13;4.83;;;13.50;99.90;;;;;;5067637;28;20231;-76
2020/12/23 02:57:51;;;;;;;8.47;4.70;;;13.50;99.90;;;;;;5051056;28;20859;-76
2020/12/23 03:00:18;;;;;;;5.80;3.47;;;13.50;99.90;;;;;;5051763;28;20239;-76
2020/12/23 03:02:44;;;;;;;7.37;3.40;;;13.50;99.90;;;;;;5050989;28;20310;-76
2020/12/23 03:05:10;;;;;;;7.53;3.37;;;13.50;99.90;;;;;;5048510;28;20203;-76
2020/12/23 03:07:37;;;;;;;6.93;3.17;;;13.50;99.90;;;;;;5064933;28;20696;-76
2020/12/23 03:10:03;;;;;;;5.57;3.03;;;13.50;99.90;;;;;;5060717;28;20286;-76
2020/12/23 03:12:30;;;;;;;5.60;3.30;;;13.60;99.90;;;;;;5057679;28;20291;-76
2020/12/23 03:14:57;;;;;;;4.23;2.70;;;13.60;99.90;;;;;;5060808;28;20291;-76
2020/12/23 03:17:23;;;;;;;6.30;2.63;;;13.60;99.90;;;;;;5074697;28;20285;-76
2020/12/23 03:19:50;;;;;;;4.87;2.30;;;13.60;99.90;;;;;;5075906;28;20230;-76
2020/12/23 03:22:16;;;;;;;4.63;2.30;;;13.50;99.90;;;;;;5075949;28;20289;-76
2020/12/23 03:24:42;;;;;;;3.60;1.80;;;13.60;99.90;;;;;;5075558;28;20282;-76
2020/12/23 03:27:09;;;;;;;3.93;2.03;;;13.60;99.90;;;;;;5075317;28;20255;-76
2020/12/23 03:29:36;;;;;;;3.33;1.97;;;13.60;99.90;;;;;;5074303;28;20266;-76
2020/12/23 03:32:03;;;;;;;5.07;2.03;;;13.60;99.90;;;;;;5075162;28;20234;-76
2020/12/23 03:34:30;;;;;;;3.20;1.90;;;13.60;99.90;;;;;;5075550;28;20238;-76
2020/12/23 03:36:56;;;;;;;3.77;1.83;;;13.60;99.90;;;;;;5075197;28;20230;-76
2020/12/23 03:39:23;;;;;;;2.17;1.83;;;13.60;99.90;;;;;;5082061;28;20829;-76
2020/12/23 03:41:49;;;;;;;3.80;1.83;;;13.60;99.90;;;;;;5080144;28;20231;-76
2020/12/23 03:44:15;;;;;;;5.37;1.93;;;13.60;99.90;;;;;;5074547;28;20242;-76
2020/12/23 03:46:42;;;;;;;3.60;1.60;;;13.60;99.90;;;;;;5074722;28;20353;-76
2020/12/23 03:49:09;;;;;;;3.97;2.00;;;13.60;99.90;;;;;;5074783;28;20239;-76
2020/12/23 03:51:36;;;;;;;3.23;1.87;;;13.60;99.90;;;;;;5075291;28;20290;-76
2020/12/23 03:54:02;;;;;;;3.57;2.00;;;13.70;99.90;;;;;;5073287;28;20286;-76
2020/12/23 03:56:29;;;;;;;3.13;2.07;;;13.60;99.90;;;;;;5074641;28;20235;-76
2020/12/23 03:58:55;;;;;;;3.17;1.93;;;13.60;99.90;;;;;;5074941;28;20245;-76
2020/12/23 04:01:21;;;;;;;3.67;2.20;;;13.70;99.90;;;;;;5074905;28;20230;-76
2020/12/23 04:03:48;;;;;;;2.87;1.90;;;13.60;99.90;;;;;;5075210;28;20265;-76
2020/12/23 04:06:15;;;;;;;2.30;1.67;;;13.60;99.90;;;;;;5069875;28;20238;-76
2020/12/23 04:08:42;;;;;;;2.10;1.60;;;13.60;99.90;;;;;;5074603;28;20240;-76
2020/12/23 04:11:08;;;;;;;1.50;1.40;;;13.60;99.90;;;;;;5074466;28;20242;-76
2020/12/23 04:13:35;;;;;;;2.43;1.50;;;13.70;99.90;;;;;;5074469;28;20218;-76
2020/12/23 04:16:02;;;;;;;2.63;1.60;;;13.70;99.90;;;;;;5054892;28;20235;-76
2020/12/23 04:18:28;;;;;;;2.27;1.37;;;13.70;99.90;;;;;;5054530;28;20254;-76
2020/12/23 04:20:54;;;;;;;2.43;1.30;;;13.70;99.90;;;;;;5072682;28;20287;-76
2020/12/23 04:23:22;;;;;;;4.03;1.27;;;13.70;99.90;;;;;;5069002;28;20262;-76
2020/12/23 04:25:48;;;;;;;2.80;1.40;;;13.80;99.90;;;;;;5062256;28;20227;-76
2020/12/23 04:28:15;;;;;;;2.97;1.37;;;13.80;99.90;;;;;;5073224;28;20277;-76
2020/12/23 04:30:44;;;;;;;3.13;1.60;;;13.70;99.90;;;;;;5073010;28;20710;-76
2020/12/23 04:33:10;;;;;;;1.83;1.30;;;13.70;99.90;;;;;;5054393;28;20195;-76
2020/12/23 04:35:37;;;;;;;2.47;1.70;;;13.70;99.90;;;;;;5067520;28;20226;-76
2020/12/23 04:38:04;;;;;;;3.17;1.77;;;13.70;99.90;;;;;;5074025;28;20547;-76
2020/12/23 04:40:32;;;;;;;2.73;1.57;;;13.70;99.90;;;;;;5090210;28;20218;-76
2020/12/23 04:42:59;;;;;;;5.37;1.90;;;13.60;99.90;;;;;;5074772;28;20342;-76
2020/12/23 04:45:25;;;;;;;2.60;2.13;;;13.60;99.90;;;;;;5058640;28;20231;-76
2020/12/23 04:47:56;;;;;;;2.70;1.63;;;13.60;99.90;;;;;;5071301;28;20294;-76
2020/12/23 04:50:23;;;;;;;4.37;1.93;;;13.60;99.90;;;;;;5073450;28;20617;-76
2020/12/23 04:52:49;;;;;;;3.17;1.53;;;13.60;99.90;;;;;;5073978;28;20232;-76
2020/12/23 04:55:16;;;;;;;2.10;1.50;;;13.60;99.90;;;;;;5064133;28;20264;-76
2020/12/23 04:57:44;;;;;;;2.83;1.57;;;13.60;99.90;;;;;;5054042;28;20231;-76
2020/12/23 05:00:11;;;;;;;3.03;1.37;;;13.60;99.90;;;;;;5054047;28;20235;-75
2020/12/23 05:02:37;;;;;;;3.20;1.37;;;13.60;99.90;;;;;;5067822;28;20310;-75
2020/12/23 05:05:04;;;;;;;2.53;1.00;;;13.60;99.90;;;;;;5073769;28;20663;-75
2020/12/23 05:07:30;;;;;;;1.43;0.97;;;13.60;99.90;;;;;;5072614;28;20291;-75
2020/12/23 05:09:56;;;;;;;2.33;1.10;;;13.60;99.90;;;;;;5073735;28;20288;-75
2020/12/23 05:12:23;;;;;;;2.10;1.10;;;13.60;99.90;;;;;;5073689;28;20282;-76
2020/12/23 05:14:51;;;;;;;2.13;0.90;;;13.60;99.90;;;;;;5073513;28;20290;-76
2020/12/23 05:17:18;;;;;;;2.73;1.10;;;13.50;99.90;;;;;;5073475;28;20675;-76
2020/12/23 05:19:46;;;;;;;2.07;0.90;;;13.60;99.90;;;;;;5071984;28;20722;-76
2020/12/23 05:22:16;;;;;;;2.03;1.03;;;13.50;99.90;;;;;;5055363;28;20251;-76
2020/12/23 05:24:43;;;;;;;2.47;0.80;;;13.50;99.90;;;;;;5058243;28;20580;-76
2020/12/23 05:27:09;;;;;;;2.13;0.90;;;13.60;99.90;;;;;;5054674;28;20247;-76
2020/12/23 05:29:36;;;;;;;1.10;0.90;;;13.60;99.90;;;;;;5053181;28;20411;-76
2020/12/23 05:32:04;;;;;;;1.33;0.60;;;13.50;99.90;;;;;;5053093;28;20238;-76
2020/12/23 05:34:35;;;;;;;2.10;0.90;;;13.60;99.90;;;;;;5035326;28;20218;-76
2020/12/23 05:37:03;;;;;;;3.40;1.00;;;13.50;99.90;;;;;;5062009;28;20286;-76
2020/12/23 05:39:32;;;;;;;1.47;0.80;;;13.60;99.90;;;;;;5080095;28;20310;-76
2020/12/23 05:41:59;;;;;;;2.90;0.77;;;13.60;99.90;;;;;;5092971;28;20202;-76
2020/12/23 05:44:26;;;;;;;2.93;1.00;;;13.50;99.90;;;;;;5073292;28;20232;-76
2020/12/23 05:46:54;;;;;;;3.63;0.83;;;13.60;99.90;;;;;;5072548;28;20275;-76
2020/12/23 05:49:22;;;;;;;3.43;0.73;;;13.50;99.90;;;;;;5072985;28;20252;-76
2020/12/23 05:51:50;;;;;;;2.80;1.10;;;13.60;99.90;;;;;;5072528;28;20667;-76
2020/12/23 05:54:19;;;;;;;3.90;1.00;;;13.50;99.90;;;;;;5062041;28;20244;-75
2020/12/23 05:56:45;;;;;;;4.10;1.47;;;13.50;99.90;;;;;;5072668;28;20242;-76
2020/12/23 05:59:12;;;;;;;2.77;1.10;;;13.50;99.90;;;;;;5054494;28;20671;-76
2020/12/23 06:01:39;;;;;;;4.63;0.97;;;13.50;99.90;;;;;;5072886;28;20243;-76
2020/12/23 06:04:08;;;;;;;4.40;1.30;;;13.50;99.90;;;;;;5072789;28;20302;-76
2020/12/23 06:06:36;;;;;;;5.07;1.60;;;13.50;99.90;;;;;;5072468;28;20693;-76
2020/12/23 06:09:05;;;;;;;3.17;1.07;;;13.50;99.90;;;;;;5072061;28;20282;-76
2020/12/23 06:11:34;;;;;;;3.00;1.07;;;13.50;99.90;;;;;;5072994;28;20594;-76
2020/12/23 06:14:22;;;;;;;3.67;1.03;;;13.40;99.90;;;;;;5071941;28;20226;-76
2020/12/23 06:16:51;;;;;;;5.53;1.33;;;13.50;99.90;;;;;;5072273;28;20241;-76
2020/12/23 06:19:28;;;;;;;3.37;1.20;;;13.40;99.90;;;;;;5072474;28;20717;-82
2020/12/23 06:21:56;;;;;;;2.90;1.23;;;13.40;99.90;;;;;;5071267;28;20234;-82
2020/12/23 06:24:23;;;;;;;3.93;1.17;;;13.40;99.90;;;;;;5071940;28;20195;-83
2020/12/23 06:26:51;;;;;;;4.27;1.50;;;13.40;99.90;;;;;;5071161;28;20296;-82
2020/12/23 06:29:19;;;;;;;4.90;1.70;;;13.40;99.90;;;;;;5066193;28;20350;-82
2020/12/23 06:31:48;;;;;;;4.77;1.23;;;13.40;99.90;;;;;;5052423;28;20238;-82
2020/12/23 06:34:16;;;;;;;3.93;1.40;;;13.40;99.90;;;;;;5066775;28;20230;-82
2020/12/23 06:36:44;;;;;;;7.43;1.40;;;13.40;99.90;;;;;;5057785;28;20691;-82
2020/12/23 06:39:38;;;;;;;5.53;1.47;;;13.40;99.90;;;;;;5070108;28;20234;-82
2020/12/23 06:42:36;;;;;;;5.50;1.60;;;13.40;99.90;;;;;;5052487;28;20235;-82
2020/12/23 06:45:10;;;;;;;6.00;1.53;;;13.40;99.90;;;;;;5068955;28;20210;-82
2020/12/23 06:47:38;;;;;;;3.70;1.30;;;13.40;99.90;;;;;;5072257;28;20255;-82
2020/12/23 06:50:24;;;;;;;4.13;1.70;;;13.40;99.90;;;;;;5071760;28;20199;-82
2020/12/23 06:52:51;;;;;;;4.10;1.30;;;13.40;99.90;;;;;;5071327;28;20674;-82
2020/12/23 06:55:18;;;;;;;5.73;1.40;;;13.40;99.90;;;;;;5052865;28;20291;-81
2020/12/23 06:57:55;;;;;;;5.00;1.70;;;13.40;99.90;;;;;;5054631;28;20261;-81
2020/12/23 07:00:41;;;;;;;4.53;1.23;;;13.40;99.90;;;;;;5058651;28;20556;-81
2020/12/23 07:03:10;;;;;;;5.27;1.37;;;13.40;99.90;;;;;;5060266;28;20250;-81
2020/12/23 07:05:44;;;;;;;3.50;1.13;;;13.40;99.90;;;;;;5060700;28;20226;-81
2020/12/23 07:08:13;;;;;;;4.57;1.30;;;13.40;99.90;;;;;;5070744;28;20194;-81
2020/12/23 07:10:44;;;;;;;2.90;1.43;;;13.40;99.90;;;;;;5071697;28;20298;-81
2020/12/23 07:13:13;;;;;;;4.57;1.40;;;13.40;99.90;;;;;;5068836;28;20282;-81
2020/12/23 07:15:41;;;;;;;4.37;1.30;;;13.40;99.90;;;;;;5052276;28;20210;-80
2020/12/23 07:18:09;;;;;;;3.23;1.40;;;13.40;99.90;;;;;;5061464;28;20294;-81
2020/12/23 07:20:39;;;;;;;6.57;1.67;;;13.40;99.90;;;;;;5067515;28;20689;-81
2020/12/23 07:23:08;;;;;;;4.23;1.30;;;13.40;99.90;;;;;;5051486;28;20707;-81
2020/12/23 07:25:37;;;;;;;3.43;1.07;;;13.40;99.90;;;;;;5069254;28;20690;-81
2020/12/23 07:28:08;;;;;;;2.83;1.10;;;13.40;99.90;;;;;;5059753;28;20634;-80
2020/12/23 07:30:37;;;;;;;4.93;1.20;;;13.40;99.90;;;;;;5059778;28;20227;-80
2020/12/23 07:33:07;;;;;;;4.23;1.13;;;13.30;99.90;;;;;;5069443;28;20633;-80
2020/12/23 07:35:34;;;;;;;3.20;1.33;;;13.30;99.90;;;;;;5070437;28;20241;-80
2020/12/23 07:38:03;;;;;;;5.60;1.50;;;13.30;99.90;;;;;;5065329;28;20200;-80
2020/12/23 07:40:32;;;;;;;5.07;1.50;;;13.30;99.90;;;;;;5058419;28;20234;-80
2020/12/23 07:42:58;;;;;;;5.63;1.43;;;13.30;99.90;;;;;;5065380;28;20301;-80
2020/12/23 07:45:27;;;;;;;2.73;1.17;;;13.30;99.90;;;;;;5068462;28;20223;-81
2020/12/23 07:47:55;;;;;;;3.53;1.40;;;13.30;99.90;;;;;;5070987;28;20230;-81
2020/12/23 07:50:22;;;;;;;3.13;1.37;;;13.30;99.90;;;;;;5070595;28;20242;-80
2020/12/23 07:52:49;;;;;;;3.93;1.10;;;13.30;99.90;;;;;;5063136;28;20192;-80
2020/12/23 07:55:16;;;;;;;3.80;1.20;;;13.30;99.90;;;;;;5063638;28;20721;-81
2020/12/23 07:57:43;;;;;;;4.20;1.27;;;13.30;99.90;;;;;;5069838;28;20239;-81
2020/12/23 08:00:11;;;;;;;5.93;1.60;;;13.40;99.90;;;;;;5069385;28;20203;-80
2020/12/23 08:02:39;;;;;;;4.37;1.40;;;13.40;99.90;;;;;;5062038;28;20288;-80
2020/12/23 08:05:07;;;;;;;5.33;1.50;;;13.40;99.90;;;;;;5067213;28;20223;-80
2020/12/23 08:07:37;;;;;;;8.23;1.90;;;13.40;99.90;;;;;;5063615;28;20385;-80
2020/12/23 08:10:09;;;;;;;11.00;2.00;;;13.40;99.90;;;;;;5061302;28;20227;-80
2020/12/23 08:12:36;;;;;;;4.60;1.57;;;13.30;99.90;;;;;;5069765;28;20286;-81
2020/12/23 08:15:09;;;;;;;5.13;1.90;;;13.30;99.90;;;;;;5072382;28;20291;-81
2020/12/23 08:17:35;;;;;;;7.27;1.90;;;13.40;99.90;;;;;;5072794;28;20233;-80
2020/12/23 08:20:05;;;;;;;5.03;1.70;;;13.30;99.90;;;;;;5066340;28;20282;-82
2020/12/23 08:22:33;;;;;;;6.10;1.53;;;13.20;99.90;;;;;;5072673;28;20306;-81
2020/12/23 08:25:11;;;;;;;6.80;1.77;;;13.20;99.90;;;;;;5068577;28;20230;-81
2020/12/23 08:27:39;;;;;;;5.63;1.50;;;13.30;99.90;;;;;;5070294;28;20401;-81
2020/12/23 08:30:09;;;;;;;8.27;1.97;;;13.30;99.90;;;;;;5071772;28;20267;-81
2020/12/23 08:32:44;;;;;;;13.50;2.20;;;13.30;99.90;;;;;;5071838;28;20226;-81
2020/12/23 08:35:12;;;;;;;5.83;1.60;;;13.50;99.90;;;;;;5070863;28;20198;-81
2020/12/23 08:37:39;;;;;;;7.93;1.87;;;13.50;99.90;;;;;;5073313;28;20715;-81
2020/12/23 08:40:09;;;;;;;7.63;1.60;;;13.40;99.90;;;;;;5066296;28;20250;-81
2020/12/23 08:42:36;;;;;;;11.10;1.83;;;13.50;99.90;;;;;;5072315;28;20219;-82
2020/12/23 08:45:04;;;;;;;10.93;2.20;;;13.40;99.90;;;;;;5072622;28;20199;-82
2020/12/23 08:47:32;;;;;;;10.63;2.07;;;13.40;99.90;;;;;;5073046;28;20313;-79
2020/12/23 08:50:00;;;;;;;12.57;2.07;;;13.50;99.90;;;;;;5070927;28;20230;-83
2020/12/23 08:52:28;;;;;;;11.00;2.37;;;13.50;99.90;;;;;;5073462;28;20230;-82
2020/12/23 08:54:54;;;;;;;13.37;2.27;;;13.50;99.90;;;;;;5073198;28;20290;-83
2020/12/23 08:57:24;;;;;;;13.70;2.67;;;13.50;99.90;;;;;;5064751;28;20242;-83
2020/12/23 08:59:51;;;;;;;15.67;2.67;;;13.50;99.90;;;;;;5068706;28;20239;-83
2020/12/23 09:02:18;;;;;;;14.17;2.50;;;13.50;99.90;;;;;;5072966;28;20241;-82
2020/12/23 09:04:45;;;;;;;16.33;2.70;;;13.50;99.90;;;;;;5068310;28;20231;-83
2020/12/23 09:07:13;;;;;;;12.17;2.93;;;13.50;99.90;;;;;;5063068;28;20234;-83
2020/12/23 09:09:41;;;;;;;15.53;2.70;;;13.50;99.90;;;;;;5073640;28;20302;-84
2020/12/23 09:12:07;;;;;;;17.07;2.90;;;13.50;99.90;;;;;;5072070;28;20234;-84
2020/12/23 09:14:37;;;;;;;15.63;3.03;;;13.50;99.90;;;;;;5056367;28;20229;-84
2020/12/23 09:17:06;;;;;;;14.70;2.67;;;13.50;99.90;;;;;;5066194;28;20279;-84
2020/12/23 09:19:53;;;;;;;14.80;2.80;;;13.50;99.90;;;;;;5059681;28;20214;-83
2020/12/23 09:22:33;;;;;;;14.63;2.67;;;13.50;99.90;;;;;;5072803;28;20231;-83
2020/12/23 09:25:18;;;;;;;12.27;3.53;;;13.50;99.90;;;;;;5071826;28;20191;-83
2020/12/23 09:27:46;;;;;;;10.57;2.33;;;13.50;99.90;;;;;;5051959;28;20253;-83
2020/12/23 09:30:13;;;;;;;9.40;2.80;;;13.50;99.90;;;;;;5072902;28;20318;-84
2020/12/23 09:32:53;;;;;;;12.73;2.17;;;13.50;99.90;;;;;;5073105;28;20235;-83
2020/12/23 09:35:23;;;;;;;10.53;2.40;;;13.50;99.90;;;;;;5073411;28;20237;-84
2020/12/23 09:38:01;;;;;;;11.80;1.90;;;13.40;99.90;;;;;;5055762;28;20191;-83
2020/12/23 09:40:29;;;;;;;12.80;2.23;;;13.40;99.90;;;;;;5063945;28;20231;-84
2020/12/23 09:42:56;;;;;;;10.50;1.97;;;13.40;99.90;;;;;;5064463;28;20309;-84
2020/12/23 09:45:22;;;;;;;9.53;1.70;;;13.30;99.90;;;;;;5064090;28;20617;-84
2020/12/23 09:47:49;;;;;;;7.93;1.67;;;13.30;99.90;;;;;;5072476;28;20233;-84
2020/12/23 09:50:15;;;;;;;8.40;2.30;;;13.30;99.90;;;;;;5065370;28;20295;-84
2020/12/23 09:52:42;;;;;;;8.73;1.70;;;13.30;99.90;;;;;;5053041;28;20223;-84
2020/12/23 09:55:08;;;;;;;12.03;2.00;;;13.30;99.90;;;;;;5053167;28;20203;-84
2020/12/23 09:57:36;;;;;;;12.63;2.47;;;13.30;99.90;;;;;;5054665;28;20342;-84
2020/12/23 10:00:05;;;;;;;12.17;2.33;;;13.20;99.90;;;;;;5072733;28;20230;-84
2020/12/23 10:02:31;;;;;;;9.80;1.87;;;13.30;99.90;;;;;;5072394;28;20258;-83
2020/12/23 10:04:57;;;;;;;8.37;1.73;;;13.30;99.90;;;;;;5072894;28;20234;-84
2020/12/23 10:07:24;;;;;;;7.50;1.50;;;13.20;99.90;;;;;;5072989;28;20564;-83
2020/12/23 10:09:50;;;;;;;6.33;1.40;;;13.20;99.90;;;;;;5072538;28;20247;-84
2020/12/23 10:12:18;;;;;;;10.30;1.70;;;13.30;99.90;;;;;;5070905;28;20257;-85
2020/12/23 10:14:45;;;;;;;9.57;1.60;;;13.30;99.90;;;;;;5071412;28;20199;-84
2020/12/23 10:17:12;;;;;;;6.67;1.63;;;13.30;99.90;;;;;;5058283;28;20306;-84
2020/12/23 10:19:38;;;;;;;9.70;1.90;;;13.30;99.90;;;;;;5069090;28;20280;-84
2020/12/23 10:22:05;;;;;;;8.07;1.63;;;13.30;99.90;;;;;;5068712;28;20230;-84
2020/12/23 10:24:31;;;;;;;7.83;1.60;;;13.30;99.90;;;;;;5072042;28;20307;-84
2020/12/23 10:26:57;;;;;;;8.53;1.80;;;13.30;99.90;;;;;;5070102;28;20253;-84
2020/12/23 10:29:24;;;;;;;10.43;1.73;;;13.20;99.90;;;;;;5071804;28;20657;-84
2020/12/23 10:31:51;;;;;;;12.17;1.50;;;13.10;99.90;;;;;;5071423;28;20230;-84
2020/12/23 10:34:18;;;;;;;8.23;1.50;;;13.10;99.90;;;;;;5071801;28;20282;-84
2020/12/23 10:36:47;;;;;;;11.07;2.27;;;13.00;99.90;;;;;;5063843;28;20238;-84
2020/12/23 10:39:15;;;;;;;13.17;1.83;;;13.00;99.90;;;;;;5066751;28;20664;-84
2020/12/23 10:41:42;;;;;;;10.83;2.20;;;13.00;99.90;;;;;;5067945;28;20584;-84
2020/12/23 10:44:09;;;;;;;11.47;1.53;;;12.90;99.90;;;;;;5068289;28;20219;-83
2020/12/23 10:46:35;;;;;;;11.57;1.83;;;12.90;99.90;;;;;;5065805;28;20745;-82
2020/12/23 10:49:03;;;;;;;10.73;1.93;;;13.00;99.90;;;;;;5062954;28;20285;-83
2020/12/23 10:51:29;;;;;;;12.27;2.17;;;13.00;99.90;;;;;;5071297;28;20235;-83
2020/12/23 10:53:55;;;;;;;8.40;1.40;;;13.00;99.90;;;;;;5068503;28;20290;-83
2020/12/23 10:56:22;;;;;;;9.50;1.70;;;13.20;99.90;;;;;;5064293;28;20679;-84
2020/12/23 10:58:49;;;;;;;7.30;1.77;;;13.10;99.90;;;;;;5063354;28;20238;-83
2020/12/23 11:01:17;;;;;;;8.37;1.60;;;13.20;99.90;;;;;;5063087;28;20669;-83
2020/12/23 11:03:44;;;;;;;9.00;1.70;;;14.10;99.90;;;;;;5064055;28;20226;-83
2020/12/23 11:06:14;;;;;;;8.17;1.40;;;14.50;99.90;;;;;;5062785;28;20323;-84
2020/12/23 11:08:41;;;;;;;6.77;1.70;;;14.50;99.90;;;;;;5056562;28;20543;-84
2020/12/23 11:11:08;;;;;;;9.60;1.40;;;14.20;99.90;;;;;;5068025;28;20237;-84
2020/12/23 11:13:34;;;;;;;9.10;1.80;;;14.10;99.90;;;;;;5057412;28;20223;-83
2020/12/23 11:16:01;;;;;;;8.87;2.07;;;14.00;99.90;;;;;;5063522;28;20636;-83
2020/12/23 11:18:27;;;;;;;12.07;2.10;;;13.60;99.90;;;;;;5069235;28;20239;-83
2020/12/23 11:20:53;;;;;;;8.10;1.60;;;13.30;99.90;;;;;;5069639;28;20683;-84
2020/12/23 11:23:27;;;;;;;9.83;1.93;;;13.40;99.90;;;;;;5059087;28;20301;-83
2020/12/23 11:25:55;;;;;;;7.53;1.53;;;13.40;99.90;;;;;;5070016;28;20227;-83
2020/12/23 11:28:21;;;;;;;10.43;2.07;;;13.40;99.90;;;;;;5068209;28;20233;-83
2020/12/23 11:30:49;;;;;;;10.07;1.70;;;13.30;99.90;;;;;;5070541;28;20255;-83
2020/12/23 11:33:16;;;;;;;10.63;2.23;;;13.20;99.90;;;;;;5070203;28;20222;-84
2020/12/23 11:35:42;;;;;;;9.63;1.80;;;13.10;99.90;;;;;;5068297;28;20238;-82
2020/12/23 11:38:09;;;;;;;10.63;2.10;;;13.20;99.90;;;;;;5071229;28;20238;-82
2020/12/23 11:40:36;;;;;;;11.87;2.80;;;13.20;99.90;;;;;;5074453;28;20302;-83
2020/12/23 11:43:03;;;;;;;10.13;2.27;;;13.00;99.90;;;;;;5074854;28;20304;-83
2020/12/23 11:45:30;;;;;;;8.43;2.10;;;13.10;99.90;;;;;;5074738;28;20629;-83
2020/12/23 11:47:56;;;;;;;13.43;2.40;;;13.60;99.90;;;;;;5068832;28;20238;-82
2020/12/23 11:50:23;;;;;;;10.43;1.77;;;13.90;99.90;;;;;;5064139;28;20223;-83
2020/12/23 11:52:49;;;;;;;9.03;2.00;;;13.70;99.90;;;;;;5075124;28;20362;-83
2020/12/23 11:55:18;;;;;;;11.27;1.90;;;13.60;99.90;;;;;;5074003;28;20226;-83
2020/12/23 11:57:45;;;;;;;9.53;1.60;;;13.60;99.90;;;;;;5075098;28;20198;-83
2020/12/23 12:00:12;;;;;;;9.77;2.20;;;13.50;99.90;;;;;;5074727;28;20227;-84
2020/12/23 12:02:38;;;;;;;9.93;1.60;;;13.40;99.90;;;;;;5064014;28;20232;-84
2020/12/23 12:05:05;;;;;;;7.80;2.03;;;13.40;99.90;;;;;;5069287;28;20909;-84
2020/12/23 12:07:32;;;;;;;7.13;1.97;;;13.80;99.90;;;;;;5057240;28;20235;-84
2020/12/23 12:09:59;;;;;;;8.27;2.13;;;14.30;99.90;;;;;;5073970;28;20237;-84
2020/12/23 12:12:26;;;;;;;9.73;1.80;;;14.60;99.90;;;;;;5065411;28;20253;-84
2020/12/23 12:14:53;;;;;;;10.50;2.00;;;14.60;99.90;;;;;;5072227;28;20605;-85
2020/12/23 12:17:20;;;;;;;7.97;1.93;;;14.60;99.90;;;;;;5070909;28;20686;-84
2020/12/23 12:19:46;;;;;;;5.83;1.60;;;14.80;99.90;;;;;;5070170;28;20239;-84
2020/12/23 12:22:12;;;;;;;7.90;2.00;;;14.70;99.90;;;;;;5069029;28;20257;-84
2020/12/23 12:24:39;;;;;;;9.57;1.67;;;14.10;99.90;;;;;;5057625;28;20250;-84
2020/12/23 12:27:05;;;;;;;8.00;1.77;;;13.90;99.90;;;;;;5060103;28;20242;-82
2020/12/23 12:29:32;;;;;;;7.87;1.67;;;13.90;99.90;;;;;;5064151;28;20673;-84
2020/12/23 12:31:59;;;;;;;6.67;1.50;;;14.30;99.90;;;;;;5066238;28;20239;-84
2020/12/23 12:34:27;;;;;;;8.83;1.60;;;14.60;99.90;;;;;;5057555;28;20234;-84
2020/12/23 12:36:54;;;;;;;7.57;1.80;;;14.40;99.90;;;;;;5071773;28;20199;-84
2020/12/23 12:39:20;;;;;;;8.37;2.03;;;14.20;99.90;;;;;;5079593;28;20254;-84
2020/12/23 12:41:47;;;;;;;7.33;1.60;;;13.80;99.90;;;;;;5072779;28;20231;-83
2020/12/23 12:44:14;;;;;;;10.80;2.00;;;13.70;99.90;;;;;;5069319;28;20362;-84
2020/12/23 12:46:40;;;;;;;10.37;2.17;;;13.50;99.90;;;;;;5063787;28;20599;-83
2020/12/23 12:49:08;;;;;;;10.17;2.00;;;13.30;99.90;;;;;;5073016;28;20223;-84